Time;durP1;ratioP1;P1;durP2;ratioP2;P2;SDS_P1;SDS_P2;PMS_P1;PMS_P2;Temp;Humidity;BMP_temperature;BMP_pressure;BME280_temperature;BME280_humidity;BME280_pressure;Samples;Min_cycle;Max_cycle;Signal;HPM_P1;HPM_P2
2023/08/17 00:04:01;;;;;;;;;3.00;3.00;;;;;;;;2;199476208;199476208;-73
2023/08/17 00:09:42;;;;;;;;;6.00;6.00;;;;;;;;2;167531540;167531540;-74
2023/08/17 00:16:05;;;;;;;;;6.50;6.50;;;;;;;;2;198345842;198345842;-73
2023/08/17 00:21:48;;;;;;;;;3.00;3.00;;;;;;;;2;166087430;166087430;-73
2023/08/17 00:28:19;;;;;;;;;8.50;8.50;;;;;;;;2;204382851;204382851;-73
2023/08/17 00:34:05;;;;;;;;;7.50;7.50;;;;;;;;2;167156288;167156288;-74
2023/08/17 00:40:31;;;;;;;;;8.50;8.50;;;;;;;;2;199012015;199012015;-73
2023/08/17 00:46:14;;;;;;;;;3.50;3.50;;;;;;;;2;170190437;170190437;-73
2023/08/17 00:52:39;;;;;;;;;7.50;7.50;;;;;;;;2;198836701;198836701;-73
2023/08/17 00:58:14;;;;;;;;;7.00;7.00;;;;;;;;2;162207266;162207266;-73
2023/08/17 01:04:26;;;;;;;;;3.50;3.50;;;;;;;;2;192092348;192092348;-73
2023/08/17 01:09:57;;;;;;;;;9.00;9.00;;;;;;;;2;161132271;161132271;-74
2023/08/17 01:16:38;;;;;;;;;5.00;5.00;;;;;;;;2;197696514;197696514;-73
2023/08/17 01:22:11;;;;;;;;;9.50;9.50;;;;;;;;2;166689675;166689675;-73
2023/08/17 01:28:29;;;;;;;;;9.00;9.00;;;;;;;;2;195896463;195896463;-73
2023/08/17 01:34:04;;;;;;;;;9.50;9.50;;;;;;;;2;164405742;164405742;-73
2023/08/17 01:40:18;;;;;;;;;9.50;9.50;;;;;;;;2;190538652;190538652;-73
2023/08/17 01:45:42;;;;;;;;;5.50;5.50;;;;;;;;2;155846566;155846566;-73
2023/08/17 01:51:53;;;;;;;;;9.00;9.00;;;;;;;;2;196804576;196804576;-74
2023/08/17 01:57:23;;;;;;;;;9.00;9.00;;;;;;;;2;161448909;161448909;-73
2023/08/17 02:03:20;;;;;;;;;7.00;7.00;;;;;;;;2;185025579;185025579;-73
2023/08/17 02:08:39;;;;;;;;;18.00;10.00;;;;;;;;2;154871464;154871464;-73
2023/08/17 02:14:49;;;;;;;;;8.50;8.50;;;;;;;;2;190814973;190814973;-73
2023/08/17 02:20:14;;;;;;;;;4.00;4.00;;;;;;;;2;157258768;157258768;-73
2023/08/17 02:26:10;;;;;;;;;7.50;7.50;;;;;;;;2;186411627;186411627;-73
2023/08/17 02:31:38;;;;;;;;;5.00;5.00;;;;;;;;2;163694418;163694418;-72
2023/08/17 02:37:37;;;;;;;;;11.50;11.50;;;;;;;;2;183935253;183935253;-72
2023/08/17 02:42:58;;;;;;;;;6.00;6.00;;;;;;;;2;155861558;155861558;-70
2023/08/17 02:49:02;;;;;;;;;8.50;8.50;;;;;;;;2;189827290;189827290;-70
2023/08/17 02:54:19;;;;;;;;;15.50;15.50;;;;;;;;2;155774807;155774807;-70
2023/08/17 03:00:18;;;;;;;;;9.00;6.00;;;;;;;;2;185848765;185848765;-70
2023/08/17 03:05:36;;;;;;;;;8.50;6.00;;;;;;;;2;153915034;153915034;-70
2023/08/17 03:11:31;;;;;;;;;11.50;11.50;;;;;;;;2;183028533;183028533;-70
2023/08/17 03:16:52;;;;;;;;;21.00;10.00;;;;;;;;2;157351904;157351904;-69
2023/08/17 03:22:49;;;;;;;;;11.00;11.00;;;;;;;;2;183529338;183529338;-69
2023/08/17 03:28:00;;;;;;;;;10.00;10.00;;;;;;;;2;153372759;153372759;-70
2023/08/17 03:33:49;;;;;;;;;8.00;8.00;;;;;;;;2;181323023;181323023;-70
2023/08/17 03:38:56;;;;;;;;;8.00;8.00;;;;;;;;2;148491969;148491969;-69
2023/08/17 03:44:34;;;;;;;;;6.50;6.50;;;;;;;;2;172387692;172387692;-70
2023/08/17 03:49:33;;;;;;;;;11.50;11.50;;;;;;;;2;148783105;148783105;-70
2023/08/17 03:55:00;;;;;;;;;12.00;12.00;;;;;;;;2;167435908;167435908;-70
2023/08/17 04:04:22;;;;;;;;;6.50;6.50;;;;;;;;3;141152584;141679915;-70
2023/08/17 04:11:01;;;;;;;;;;;;;;;;;;2;261073244;261073244;-69
2023/08/17 04:20:19;;;;;;;;;13.00;10.50;;;;;;;;3;134722736;161914622;-70
2023/08/17 04:26:31;;;;;;;;;;;;;;;;;;2;234071323;234071323;-73
2023/08/17 04:31:48;;;;;;;;;18.00;18.00;;;;;;;;2;162087492;162087492;-71
2023/08/17 04:41:04;;;;;;;;;15.50;14.00;;;;;;;;3;135947486;140893664;-71
2023/08/17 04:47:42;;;;;;;;;;;;;;;;;;2;260797414;260797414;-71
2023/08/17 04:57:03;;;;;;;;;14.00;14.00;;;;;;;;3;139190472;159071525;-70
2023/08/17 05:03:15;;;;;;;;;;;;;;;;;;2;233835363;233835363;-70
2023/08/17 05:08:26;;;;;;;;;14.50;11.50;;;;;;;;2;161939132;161939132;-71
2023/08/17 05:17:35;;;;;;;;;10.50;10.50;;;;;;;;3;130332258;140336521;-71
2023/08/17 05:24:10;;;;;;;;;;;;;;;;;;2;261074895;261074895;-71
2023/08/17 05:33:14;;;;;;;;;11.50;11.50;;;;;;;;3;134697314;148988446;-71
2023/08/17 05:39:21;;;;;;;;;;;;;;;;;;2;233784998;233784998;-72
2023/08/17 05:44:14;;;;;;;;;7.50;7.50;;;;;;;;2;146791256;146791256;-72
2023/08/17 05:53:12;;;;;;;;;20.50;20.50;;;;;;;;3;125639833;133983568;-71
2023/08/17 05:59:44;;;;;;;;;;;;;;;;;;2;260712256;260712256;-71
2023/08/17 06:08:40;;;;;;;;;29.00;21.50;;;;;;;;3;127133151;148307825;-72
2023/08/17 06:14:37;;;;;;;;;;;;;;;;;;2;232334843;232334843;-71
2023/08/17 06:22:56;;;;;;;;;25.00;25.00;;;;;;;;3;124998738;139694963;-71
2023/08/17 06:29:18;;;;;;;;;;;;;;;;;;2;242260823;242260823;-71
2023/08/17 06:37:26;;;;;;;;;27.00;18.00;;;;;;;;3;118124356;128047355;-71
2023/08/17 06:44:15;;;;;;;;;;;;;;;;;;2;278098769;278098769;-71
2023/08/17 06:50:08;;;;;;;;;15.00;12.00;;;;;;;;3;107131141;116562784;-71
2023/08/17 06:55:51;;;;;;;;;13.00;13.00;;;;;;;;3;110380919;116202382;-71
2023/08/17 07:01:42;;;;;;;;;10.50;10.50;;;;;;;;3;119589545;124218759;-69
2023/08/17 07:07:32;;;;;;;;;18.00;18.00;;;;;;;;3;106691541;122790889;-70
2023/08/17 07:12:56;;;;;;;;;23.00;23.00;;;;;;;;3;102832990;105198568;-69
2023/08/17 07:18:11;;;;;;;;;25.50;22.50;;;;;;;;3;101041469;109043491;-69
2023/08/17 07:23:35;;;;;;;;;16.00;16.00;;;;;;;;3;106600777;116636211;-69
2023/08/17 07:29:00;;;;;;;;;22.00;22.00;;;;;;;;3;103307301;114415865;-70
2023/08/17 07:34:06;;;;;;;;;18.50;18.50;;;;;;;;3;94259315;97856998;-71
2023/08/17 07:39:02;;;;;;;;;26.00;26.00;;;;;;;;3;93317703;100031114;-71
2023/08/17 07:44:13;;;;;;;;;12.50;12.50;;;;;;;;3;105758113;116723903;-71
2023/08/17 07:49:17;;;;;;;;;21.00;21.00;;;;;;;;3;91060168;109172043;-71
2023/08/17 07:54:10;;;;;;;;;16.50;16.50;;;;;;;;3;88998234;94110365;-71
2023/08/17 07:58:50;;;;;;;;;22.50;22.50;;;;;;;;3;87436794;96721372;-71
2023/08/17 08:03:46;;;;;;;;;20.00;20.00;;;;;;;;3;95908670;105499860;-71
2023/08/17 08:08:28;;;;;;;;;19.00;19.00;;;;;;;;3;87613769;99049869;-71
2023/08/17 08:13:04;;;;;;;;;30.50;22.00;;;;;;;;3;82227763;85429248;-72
2023/08/17 08:17:27;;;;;;;;;14.00;14.00;;;;;;;;3;81755758;92837818;-70
2023/08/17 08:22:02;;;;;;;;;20.50;12.50;;;;;;;;3;89481757;97556042;-70
2023/08/17 08:26:45;;;;;;;;;16.00;13.00;;;;;;;;3;85872862;99473586;-71
2023/08/17 08:31:12;;;;;;;;;18.00;18.00;;;;;;;;3;80387434;82393600;-71
2023/08/17 08:35:33;;;;;;;;;26.00;26.00;;;;;;;;3;82326870;93400095;-71
2023/08/17 08:40:15;;;;;;;;;18.50;18.50;;;;;;;;3;90991590;95965620;-74
2023/08/17 08:44:45;;;;;;;;;22.50;20.00;;;;;;;;3;84885652;93320736;-74
2023/08/17 08:49:09;;;;;;;;;16.50;16.50;;;;;;;;3;80398397;81480333;-75
2023/08/17 08:53:20;;;;;;;;;12.50;12.50;;;;;;;;3;75384572;85656525;-76
2023/08/17 08:57:32;;;;;;;;;15.50;15.50;;;;;;;;3;82067544;90354531;-73
2023/08/17 09:01:58;;;;;;;;;20.50;20.50;;;;;;;;3;81552426;92112007;-74
2023/08/17 09:06:19;;;;;;;;;10.50;10.50;;;;;;;;3;77599735;81983978;-74
2023/08/17 09:10:24;;;;;;;;;15.00;15.00;;;;;;;;3;79464601;84544336;-74
2023/08/17 09:14:59;;;;;;;;;31.00;18.00;;;;;;;;3;87791505;98538562;-73
2023/08/17 09:19:36;;;;;;;;;18.00;18.00;;;;;;;;3;84247693;96943130;-75
2023/08/17 09:25:28;;;;;;;;;25.50;16.00;;;;;;;;4;65606001;80441736;-73
2023/08/17 09:29:54;;;;;;;;;;;;;;;;;;3;101610500;105816666;-75
2023/08/17 09:33:02;;;;;;;;;11.00;11.00;;;;;;;;5;41309186;53067510;-74
2023/08/17 09:36:13;;;;;;;;;;;;;;;;;;6;16417483;47325458;-75
2023/08/17 09:38:44;;;;;;;;;18.00;17.50;;;;;;;;196854;31;30599033;-76
2023/08/17 09:41:13;;;;;;;;;14.00;13.67;;;;;;;;1690940;31;7741030;-74
2023/08/17 09:43:40;;;;;;;;;18.00;16.60;;;;;;;;3882873;31;4184990;-75
2023/08/17 09:46:07;;;;;;;;;16.33;14.00;;;;;;;;4046561;31;3804768;-75
2023/08/17 09:48:32;;;;;;;;;17.50;15.00;;;;;;;;4138203;31;2027384;-75
2023/08/17 09:50:59;;;;;;;;;16.00;16.00;;;;;;;;4316853;31;2356036;-75
2023/08/17 09:53:25;;;;;;;;;12.50;12.50;;;;;;;;4481502;31;699682;-75
2023/08/17 09:55:50;;;;;;;;;12.00;10.75;;;;;;;;4552644;31;382176;-75
2023/08/17 09:58:16;;;;;;;;;11.75;10.50;;;;;;;;4564301;31;275403;-74
2023/08/17 10:00:43;;;;;;;;;11.25;10.25;;;;;;;;4570324;31;294943;-74
2023/08/17 10:03:09;;;;;;;;;11.33;10.00;;;;;;;;4572616;31;247264;-75
2023/08/17 10:05:37;;;;;;;;;11.00;10.75;;;;;;;;4577141;31;181432;-75
2023/08/17 10:08:06;;;;;;;;;13.50;13.50;;;;;;;;4572070;30;279182;-75
2023/08/17 10:10:34;;;;;;;;;12.25;12.25;;;;;;;;4567647;31;361697;-75
2023/08/17 10:13:06;;;;;;;;;13.00;12.33;;;;;;;;4572998;31;256072;-75
2023/08/17 10:15:33;;;;;;;;;12.00;12.00;;;;;;;;4575204;30;264994;-75
2023/08/17 10:18:07;;;;;;;;;11.00;11.00;;;;;;;;4581750;30;197341;-75
2023/08/17 10:20:33;;;;;;;;;9.25;8.50;;;;;;;;4582509;31;168130;-74
2023/08/17 10:23:05;;;;;;;;;10.75;8.50;;;;;;;;4586722;30;127909;-76
2023/08/17 10:25:31;;;;;;;;;10.25;10.25;;;;;;;;4586665;30;182296;-75
2023/08/17 10:27:57;;;;;;;;;11.75;11.25;;;;;;;;4589690;30;95098;-75
2023/08/17 10:30:22;;;;;;;;;9.50;9.50;;;;;;;;4591752;30;86071;-75
2023/08/17 10:32:47;;;;;;;;;11.25;10.00;;;;;;;;4592142;30;80566;-74
2023/08/17 10:35:13;;;;;;;;;12.25;11.25;;;;;;;;4592194;31;51753;-74
2023/08/17 10:37:39;;;;;;;;;13.25;11.25;;;;;;;;4592908;30;59342;-75
2023/08/17 10:40:04;;;;;;;;;10.00;9.75;;;;;;;;4592636;30;76993;-75
2023/08/17 10:42:32;;;;;;;;;16.00;13.75;;;;;;;;4594419;30;33768;-75
2023/08/17 10:44:57;;;;;;;;;10.00;9.00;;;;;;;;4594540;30;42642;-75
2023/08/17 10:47:29;;;;;;;;;12.00;11.25;;;;;;;;4593188;31;36531;-74
2023/08/17 10:50:04;;;;;;;;;7.50;6.75;;;;;;;;4594795;30;37416;-75
2023/08/17 10:52:31;;;;;;;;;8.75;8.25;;;;;;;;4595475;30;37951;-76
2023/08/17 10:54:56;;;;;;;;;10.25;9.25;;;;;;;;4594984;30;38404;-75
2023/08/17 10:57:24;;;;;;;;;10.25;9.00;;;;;;;;4595138;30;34889;-75
2023/08/17 11:00:16;;;;;;;;;7.25;7.00;;;;;;;;4595279;30;34341;-74
2023/08/17 11:02:58;;;;;;;;;9.00;9.00;;;;;;;;4594686;30;36319;-75
2023/08/17 11:05:37;;;;;;;;;6.00;6.00;;;;;;;;4594132;31;32809;-75
2023/08/17 11:08:03;;;;;;;;;10.25;10.25;;;;;;;;4595110;31;32070;-76
2023/08/17 11:10:29;;;;;;;;;8.25;7.00;;;;;;;;4595301;30;30837;-76
2023/08/17 11:13:01;;;;;;;;;5.50;5.50;;;;;;;;4594349;31;30993;-75
2023/08/17 11:15:34;;;;;;;;;9.50;9.50;;;;;;;;4595392;30;30757;-75
2023/08/17 11:17:59;;;;;;;;;8.50;8.00;;;;;;;;4595000;31;29521;-74
2023/08/17 11:20:25;;;;;;;;;8.25;8.25;;;;;;;;4595386;31;28480;-75
2023/08/17 11:22:50;;;;;;;;;6.00;6.00;;;;;;;;4595167;31;29825;-74
2023/08/17 11:25:15;;;;;;;;;6.50;6.50;;;;;;;;4595598;30;29000;-75
2023/08/17 11:27:41;;;;;;;;;7.25;6.25;;;;;;;;4595531;30;29367;-75
2023/08/17 11:30:07;;;;;;;;;1.50;1.50;;;;;;;;4594270;31;29360;-74
2023/08/17 11:32:33;;;;;;;;;21.25;11.00;;;;;;;;4595423;30;29274;-74
2023/08/17 11:34:58;;;;;;;;;10.75;9.00;;;;;;;;4595459;30;29045;-73
2023/08/17 11:37:23;;;;;;;;;7.50;4.25;;;;;;;;4596213;31;29773;-76
2023/08/17 11:39:48;;;;;;;;;7.25;7.25;;;;;;;;4596459;30;29557;-73
2023/08/17 11:42:14;;;;;;;;;10.50;9.00;;;;;;;;4579375;30;29753;-75
2023/08/17 11:44:39;;;;;;;;;14.00;12.00;;;;;;;;4578524;31;28991;-75
2023/08/17 11:47:05;;;;;;;;;8.75;8.75;;;;;;;;4578278;31;30142;-75
2023/08/17 11:49:30;;;;;;;;;10.50;9.25;;;;;;;;4577223;31;29262;-74
2023/08/17 11:51:57;;;;;;;;;7.75;7.75;;;;;;;;4578622;31;30313;-74
2023/08/17 11:54:22;;;;;;;;;5.50;5.50;;;;;;;;4578853;31;29042;-74
2023/08/17 11:56:47;;;;;;;;;8.50;8.50;;;;;;;;4578276;31;29819;-74
2023/08/17 11:59:18;;;;;;;;;7.00;5.75;;;;;;;;4577464;31;30100;-74
2023/08/17 12:01:43;;;;;;;;;4.00;4.00;;;;;;;;4577186;31;29118;-73
2023/08/17 12:04:09;;;;;;;;;6.75;6.75;;;;;;;;4578128;31;28987;-74
2023/08/17 12:06:35;;;;;;;;;7.25;6.00;;;;;;;;4578344;31;29214;-74
2023/08/17 12:09:00;;;;;;;;;8.00;8.00;;;;;;;;4578415;31;28967;-74
2023/08/17 12:11:25;;;;;;;;;9.50;7.50;;;;;;;;4578340;31;29998;-75
2023/08/17 12:13:51;;;;;;;;;10.00;8.00;;;;;;;;4578151;31;28893;-74
2023/08/17 12:16:17;;;;;;;;;5.50;5.50;;;;;;;;4577851;31;30453;-74
2023/08/17 12:18:49;;;;;;;;;7.00;5.50;;;;;;;;4577886;31;28521;-74
2023/08/17 12:21:15;;;;;;;;;10.50;9.00;;;;;;;;4577149;31;29363;-75
2023/08/17 12:23:41;;;;;;;;;5.50;5.50;;;;;;;;4577985;31;29078;-74
2023/08/17 12:26:06;;;;;;;;;8.00;8.00;;;;;;;;4578158;31;29087;-76
2023/08/17 12:28:32;;;;;;;;;10.25;7.00;;;;;;;;4578163;31;29508;-75
2023/08/17 12:30:58;;;;;;;;;7.00;7.00;;;;;;;;4578139;31;29026;-74
2023/08/17 12:33:23;;;;;;;;;7.00;6.75;;;;;;;;4578057;31;28994;-74
2023/08/17 12:35:49;;;;;;;;;6.00;6.00;;;;;;;;4577454;31;31029;-75
2023/08/17 12:38:14;;;;;;;;;8.50;7.50;;;;;;;;4576943;31;29778;-75
2023/08/17 12:40:39;;;;;;;;;7.50;7.50;;;;;;;;4578143;30;28940;-74
2023/08/17 12:43:04;;;;;;;;;7.50;5.25;;;;;;;;4578095;31;28905;-75
2023/08/17 12:45:30;;;;;;;;;5.00;5.00;;;;;;;;4576603;31;28984;-75
2023/08/17 12:47:56;;;;;;;;;7.50;7.50;;;;;;;;4577785;31;29052;-75
2023/08/17 12:50:21;;;;;;;;;6.00;5.25;;;;;;;;4577805;31;29027;-74
2023/08/17 12:52:46;;;;;;;;;7.50;7.00;;;;;;;;4577626;31;29064;-75
2023/08/17 12:55:11;;;;;;;;;6.50;6.50;;;;;;;;4577804;31;29165;-74
2023/08/17 12:57:37;;;;;;;;;6.25;5.50;;;;;;;;4577795;31;28972;-74
2023/08/17 13:00:02;;;;;;;;;6.75;6.00;;;;;;;;4576407;31;28992;-74
2023/08/17 13:02:27;;;;;;;;;5.25;5.25;;;;;;;;4577909;31;29033;-74
2023/08/17 13:04:52;;;;;;;;;6.50;6.50;;;;;;;;4577357;31;29015;-74
2023/08/17 13:07:18;;;;;;;;;7.75;6.75;;;;;;;;4577432;31;28973;-74
2023/08/17 13:09:45;;;;;;;;;6.25;6.25;;;;;;;;4577955;31;28895;-75
2023/08/17 13:12:10;;;;;;;;;7.00;6.25;;;;;;;;4577946;31;28912;-75
2023/08/17 13:14:35;;;;;;;;;5.75;5.75;;;;;;;;4577270;31;30059;-74
2023/08/17 13:17:01;;;;;;;;;6.00;6.00;;;;;;;;4576327;31;30741;-74
2023/08/17 13:19:26;;;;;;;;;5.25;5.25;;;;;;;;4577364;31;31896;-74
2023/08/17 13:21:51;;;;;;;;;5.00;5.00;;;;;;;;4577537;31;28960;-74
2023/08/17 13:24:16;;;;;;;;;7.00;5.75;;;;;;;;4577558;31;30499;-74
2023/08/17 13:26:41;;;;;;;;;5.25;5.25;;;;;;;;4583414;31;28894;-75
2023/08/17 13:29:07;;;;;;;;;7.00;6.00;;;;;;;;4593890;30;29726;-74
2023/08/17 13:31:32;;;;;;;;;5.50;5.50;;;;;;;;4593902;30;28971;-75
2023/08/17 13:33:57;;;;;;;;;5.50;5.50;;;;;;;;4593633;30;29450;-74
2023/08/17 13:36:22;;;;;;;;;7.00;6.25;;;;;;;;4593757;31;29951;-73
2023/08/17 13:38:48;;;;;;;;;7.50;6.25;;;;;;;;4594023;30;28938;-74
2023/08/17 13:41:13;;;;;;;;;5.50;5.50;;;;;;;;4586092;30;28942;-75
2023/08/17 13:43:39;;;;;;;;;6.75;4.75;;;;;;;;4575605;31;31695;-74
2023/08/17 13:46:04;;;;;;;;;6.50;6.00;;;;;;;;4576863;31;31042;-74
2023/08/17 13:48:29;;;;;;;;;7.00;4.75;;;;;;;;4577109;31;29732;-74
2023/08/17 13:50:55;;;;;;;;;6.25;6.25;;;;;;;;4577108;31;30330;-75
2023/08/17 13:53:20;;;;;;;;;7.00;6.00;;;;;;;;4577109;31;30913;-75
2023/08/17 13:55:45;;;;;;;;;6.00;6.00;;;;;;;;4577012;31;29059;-75
2023/08/17 13:58:11;;;;;;;;;6.50;6.50;;;;;;;;4577064;31;29996;-75
2023/08/17 14:00:36;;;;;;;;;8.25;8.25;;;;;;;;4577185;31;29051;-73
2023/08/17 14:03:02;;;;;;;;;7.00;7.00;;;;;;;;4577307;31;29558;-75
2023/08/17 14:05:27;;;;;;;;;5.50;5.50;;;;;;;;4577327;31;29255;-76
2023/08/17 14:07:52;;;;;;;;;4.00;4.00;;;;;;;;4577157;31;29337;-76
2023/08/17 14:10:17;;;;;;;;;5.50;5.25;;;;;;;;4577157;31;28993;-77
2023/08/17 14:12:42;;;;;;;;;9.50;5.75;;;;;;;;4576848;31;29075;-76
2023/08/17 14:15:08;;;;;;;;;5.50;5.50;;;;;;;;4576988;31;29273;-76
2023/08/17 14:17:33;;;;;;;;;4.00;2.50;;;;;;;;4577083;31;29015;-74
2023/08/17 14:19:58;;;;;;;;;6.00;6.00;;;;;;;;4577178;31;28973;-74
2023/08/17 14:22:23;;;;;;;;;5.75;5.75;;;;;;;;4575638;31;31602;-74
2023/08/17 14:24:49;;;;;;;;;3.00;3.00;;;;;;;;4575621;31;30700;-74
2023/08/17 14:27:14;;;;;;;;;5.00;5.00;;;;;;;;4576740;31;29968;-74
2023/08/17 14:29:39;;;;;;;;;6.50;5.50;;;;;;;;4576915;31;28934;-74
2023/08/17 14:32:04;;;;;;;;;6.25;6.25;;;;;;;;4576710;31;30391;-76
2023/08/17 14:34:29;;;;;;;;;8.25;7.25;;;;;;;;4575750;31;29010;-73
2023/08/17 14:36:55;;;;;;;;;5.50;5.50;;;;;;;;4576685;31;29015;-74
2023/08/17 14:39:20;;;;;;;;;4.25;4.25;;;;;;;;4577004;31;28995;-74
2023/08/17 14:41:45;;;;;;;;;5.25;4.75;;;;;;;;4587826;31;28909;-75
2023/08/17 14:44:10;;;;;;;;;7.50;5.50;;;;;;;;4593148;30;28957;-75
2023/08/17 14:46:38;;;;;;;;;8.75;6.50;;;;;;;;4593424;31;28993;-74
2023/08/17 14:49:03;;;;;;;;;5.25;5.25;;;;;;;;4592557;30;33146;-74
2023/08/17 14:51:29;;;;;;;;;5.00;5.00;;;;;;;;4592664;31;34682;-75
2023/08/17 14:53:54;;;;;;;;;4.50;4.50;;;;;;;;4590817;31;31512;-74
2023/08/17 14:56:19;;;;;;;;;7.75;6.75;;;;;;;;4592949;31;30174;-74
2023/08/17 14:58:44;;;;;;;;;4.75;4.75;;;;;;;;4594636;30;28974;-74
2023/08/17 15:01:09;;;;;;;;;5.25;5.25;;;;;;;;4595783;30;29063;-75
2023/08/17 15:03:35;;;;;;;;;7.00;5.00;;;;;;;;4595389;30;28965;-74
2023/08/17 15:06:00;;;;;;;;;6.00;6.00;;;;;;;;4595721;30;28970;-75
2023/08/17 15:08:25;;;;;;;;;5.50;4.50;;;;;;;;4595536;30;28979;-75
2023/08/17 15:10:50;;;;;;;;;7.50;3.75;;;;;;;;4594473;31;29014;-74
2023/08/17 15:13:17;;;;;;;;;5.50;4.25;;;;;;;;4595702;30;28970;-74
2023/08/17 15:15:45;;;;;;;;;5.50;5.50;;;;;;;;4595726;30;29058;-76
2023/08/17 15:18:10;;;;;;;;;6.00;6.00;;;;;;;;4593942;30;28981;-75
2023/08/17 15:20:35;;;;;;;;;5.75;4.25;;;;;;;;4594345;30;29058;-75
2023/08/17 15:23:01;;;;;;;;;5.50;5.50;;;;;;;;4583372;30;28959;-74
2023/08/17 15:25:26;;;;;;;;;7.00;6.00;;;;;;;;4598882;30;29202;-74
2023/08/17 15:27:51;;;;;;;;;5.75;5.75;;;;;;;;4594513;30;29130;-74
2023/08/17 15:30:17;;;;;;;;;6.50;5.75;;;;;;;;4591046;31;30501;-75
2023/08/17 15:32:42;;;;;;;;;5.75;5.75;;;;;;;;4592281;31;29121;-75
2023/08/17 15:35:08;;;;;;;;;5.50;5.50;;;;;;;;4594813;30;29057;-75
2023/08/17 15:37:34;;;;;;;;;5.75;5.00;;;;;;;;4594831;31;29052;-75
2023/08/17 15:39:59;;;;;;;;;4.50;4.50;;;;;;;;4593291;31;30484;-74
2023/08/17 15:42:24;;;;;;;;;6.50;6.50;;;;;;;;4579058;30;29063;-75
2023/08/17 15:44:51;;;;;;;;;5.25;5.25;;;;;;;;4576855;31;29037;-75
2023/08/17 15:47:16;;;;;;;;;5.25;5.25;;;;;;;;4578395;31;29061;-74
2023/08/17 15:49:41;;;;;;;;;5.00;5.00;;;;;;;;4577847;31;29005;-75
2023/08/17 15:52:07;;;;;;;;;6.00;6.00;;;;;;;;4578607;31;29022;-75
2023/08/17 15:54:33;;;;;;;;;5.25;5.25;;;;;;;;4578676;31;29109;-74
2023/08/17 15:56:58;;;;;;;;;6.25;5.75;;;;;;;;4577300;31;29271;-74
2023/08/17 15:59:23;;;;;;;;;4.50;4.50;;;;;;;;4578326;31;29824;-75
2023/08/17 16:01:48;;;;;;;;;8.50;6.50;;;;;;;;4578407;31;28863;-74
2023/08/17 16:04:13;;;;;;;;;8.25;7.25;;;;;;;;4578351;31;28997;-76
2023/08/17 16:06:42;;;;;;;;;6.00;6.00;;;;;;;;4576762;31;28999;-76
2023/08/17 16:09:07;;;;;;;;;7.25;6.00;;;;;;;;4576910;31;29912;-77
2023/08/17 16:11:33;;;;;;;;;8.50;6.50;;;;;;;;4577942;31;29660;-77
2023/08/17 16:13:58;;;;;;;;;7.75;6.75;;;;;;;;4577961;31;29143;-76
2023/08/17 16:16:23;;;;;;;;;10.00;9.00;;;;;;;;4576843;31;28975;-77
2023/08/17 16:18:48;;;;;;;;;8.00;8.00;;;;;;;;4577674;31;29165;-76
2023/08/17 16:21:13;;;;;;;;;9.00;7.00;;;;;;;;4577267;31;29192;-74
2023/08/17 16:23:39;;;;;;;;;4.00;4.00;;;;;;;;4576464;31;29189;-75
2023/08/17 16:28:39;;;;;;;;;7.75;7.75;;;;;;;;4631930;25;29017;-74
2023/08/17 16:31:04;;;;;;;;;6.50;4.75;;;;;;;;4627056;30;28933;-74
2023/08/17 16:33:29;;;;;;;;;8.00;7.00;;;;;;;;4627077;30;29180;-75
2023/08/17 16:35:55;;;;;;;;;8.25;7.00;;;;;;;;4627240;30;29128;-75
2023/08/17 16:38:20;;;;;;;;;6.25;6.25;;;;;;;;4626106;30;30019;-75
2023/08/17 16:40:45;;;;;;;;;7.50;6.25;;;;;;;;4627506;30;29021;-75
2023/08/17 16:43:10;;;;;;;;;7.00;7.00;;;;;;;;4627768;30;29010;-74
2023/08/17 16:45:35;;;;;;;;;8.00;7.00;;;;;;;;4627917;30;29104;-76
2023/08/17 16:48:02;;;;;;;;;6.75;5.50;;;;;;;;4627763;30;29840;-75
2023/08/17 16:50:28;;;;;;;;;11.25;9.00;;;;;;;;4626511;30;29000;-75
2023/08/17 16:52:53;;;;;;;;;6.25;6.25;;;;;;;;4627656;30;29023;-75
2023/08/17 16:55:18;;;;;;;;;8.00;7.50;;;;;;;;4627819;30;29092;-76
2023/08/17 16:57:43;;;;;;;;;6.25;6.25;;;;;;;;4627924;30;28972;-77
2023/08/17 17:00:09;;;;;;;;;8.00;6.50;;;;;;;;4626431;30;29101;-76
2023/08/17 17:02:35;;;;;;;;;8.50;8.50;;;;;;;;4627052;30;29035;-77
2023/08/17 17:05:00;;;;;;;;;6.75;6.00;;;;;;;;4627542;30;28966;-76
2023/08/17 17:07:25;;;;;;;;;9.00;9.00;;;;;;;;4627592;30;28977;-77
2023/08/17 17:09:50;;;;;;;;;6.50;6.50;;;;;;;;4627528;30;28923;-76
2023/08/17 17:12:15;;;;;;;;;6.00;6.00;;;;;;;;4627146;30;29017;-77
2023/08/17 17:14:41;;;;;;;;;5.25;4.75;;;;;;;;4626342;30;29060;-75
2023/08/17 17:17:06;;;;;;;;;4.25;4.25;;;;;;;;4626795;30;29257;-75
2023/08/17 17:19:31;;;;;;;;;6.25;6.00;;;;;;;;4625904;30;28541;-75
2023/08/17 17:21:56;;;;;;;;;8.25;8.25;;;;;;;;4626610;30;28955;-75
2023/08/17 17:24:21;;;;;;;;;8.25;5.50;;;;;;;;4627301;30;28842;-76
2023/08/17 17:26:47;;;;;;;;;7.00;6.00;;;;;;;;4627239;30;28949;-77
2023/08/17 17:29:12;;;;;;;;;9.25;7.00;;;;;;;;4626521;30;30170;-76
2023/08/17 17:31:37;;;;;;;;;7.25;5.50;;;;;;;;4628372;30;29031;-77
2023/08/17 17:34:03;;;;;;;;;7.25;6.00;;;;;;;;4627606;30;28972;-77
2023/08/17 17:36:29;;;;;;;;;7.75;6.75;;;;;;;;4627384;30;28972;-77
2023/08/17 17:38:54;;;;;;;;;6.25;6.25;;;;;;;;4627499;30;29047;-78
2023/08/17 17:41:20;;;;;;;;;8.00;6.50;;;;;;;;4627083;30;28985;-77
2023/08/17 17:43:46;;;;;;;;;7.00;7.00;;;;;;;;4627680;30;28985;-77
2023/08/17 17:46:11;;;;;;;;;9.25;7.50;;;;;;;;4626162;30;31036;-73
2023/08/17 17:48:36;;;;;;;;;7.25;5.00;;;;;;;;4626105;30;28426;-74
2023/08/17 17:51:02;;;;;;;;;9.25;7.50;;;;;;;;4620888;30;28486;-74
2023/08/17 17:53:27;;;;;;;;;7.25;6.75;;;;;;;;4620118;30;28446;-74
2023/08/17 17:55:53;;;;;;;;;10.00;7.00;;;;;;;;4627404;30;28498;-74
2023/08/17 17:58:18;;;;;;;;;6.25;6.25;;;;;;;;4627631;30;28383;-74
2023/08/17 18:00:45;;;;;;;;;7.75;7.75;;;;;;;;4627579;30;28473;-74
2023/08/17 18:03:12;;;;;;;;;6.75;6.75;;;;;;;;4627581;30;28363;-75
2023/08/17 18:05:37;;;;;;;;;7.75;7.75;;;;;;;;4627426;30;29158;-74
2023/08/17 18:08:03;;;;;;;;;9.50;8.25;;;;;;;;4627289;30;28434;-74
2023/08/17 18:10:28;;;;;;;;;8.25;8.25;;;;;;;;4627597;30;28386;-72
2023/08/17 18:12:53;;;;;;;;;7.00;7.00;;;;;;;;4627643;30;28433;-73
2023/08/17 18:15:19;;;;;;;;;9.25;8.00;;;;;;;;4627266;30;29255;-76
2023/08/17 18:17:44;;;;;;;;;9.00;9.00;;;;;;;;4626062;30;29508;-74
2023/08/17 18:20:10;;;;;;;;;7.00;6.25;;;;;;;;4612474;30;28808;-72
2023/08/17 18:22:35;;;;;;;;;11.00;9.50;;;;;;;;4610682;30;28934;-74
2023/08/17 18:25:00;;;;;;;;;6.75;6.75;;;;;;;;4609244;30;30343;-73
2023/08/17 18:27:26;;;;;;;;;9.75;8.75;;;;;;;;4610006;30;28567;-74
2023/08/17 18:29:51;;;;;;;;;8.00;7.75;;;;;;;;4610376;30;28480;-73
2023/08/17 18:32:16;;;;;;;;;9.00;6.00;;;;;;;;4609253;30;28462;-73
2023/08/17 18:34:41;;;;;;;;;9.00;8.25;;;;;;;;4612351;30;28802;-71
2023/08/17 18:37:06;;;;;;;;;7.25;6.50;;;;;;;;4612295;30;28541;-74
2023/08/17 18:39:32;;;;;;;;;9.50;9.50;;;;;;;;4612186;30;28486;-73
2023/08/17 18:41:57;;;;;;;;;7.25;7.25;;;;;;;;4612302;30;28422;-73
2023/08/17 18:44:22;;;;;;;;;9.00;7.50;;;;;;;;4611543;30;28565;-71
2023/08/17 18:46:47;;;;;;;;;7.00;7.00;;;;;;;;4612260;30;28560;-73
2023/08/17 18:49:12;;;;;;;;;9.00;7.25;;;;;;;;4612345;30;28527;-74
2023/08/17 18:51:38;;;;;;;;;7.50;7.50;;;;;;;;4610818;30;28586;-73
2023/08/17 18:54:03;;;;;;;;;8.75;8.75;;;;;;;;4612106;30;28518;-73
2023/08/17 18:56:28;;;;;;;;;11.00;9.50;;;;;;;;4612023;30;28530;-75
2023/08/17 18:58:56;;;;;;;;;10.25;9.00;;;;;;;;4611844;30;28597;-73
2023/08/17 19:01:22;;;;;;;;;7.25;7.25;;;;;;;;4611894;30;27820;-72
2023/08/17 19:03:47;;;;;;;;;11.25;9.75;;;;;;;;4611597;30;29262;-73
2023/08/17 19:06:12;;;;;;;;;7.50;7.50;;;;;;;;4612103;30;28549;-74
2023/08/17 19:08:38;;;;;;;;;8.50;7.50;;;;;;;;4610620;30;28489;-73
2023/08/17 19:11:03;;;;;;;;;8.25;8.25;;;;;;;;4611523;30;28602;-75
2023/08/17 19:13:29;;;;;;;;;8.00;8.00;;;;;;;;4611988;30;28693;-75
2023/08/17 19:15:54;;;;;;;;;6.25;5.25;;;;;;;;4611778;30;28382;-73
2023/08/17 19:18:19;;;;;;;;;7.00;7.00;;;;;;;;4611749;30;28400;-74
2023/08/17 19:20:46;;;;;;;;;9.75;6.75;;;;;;;;4611866;30;28530;-75
2023/08/17 19:23:11;;;;;;;;;7.00;5.50;;;;;;;;4610318;30;28706;-72
2023/08/17 19:25:36;;;;;;;;;7.75;6.25;;;;;;;;4611701;30;28443;-72
2023/08/17 19:28:01;;;;;;;;;8.75;8.75;;;;;;;;4610559;30;27879;-83
2023/08/17 19:30:27;;;;;;;;;8.25;7.25;;;;;;;;4612289;30;28470;-74
2023/08/17 19:32:58;;;;;;;;;8.75;8.75;;;;;;;;4612521;30;28494;-74
2023/08/17 19:35:24;;;;;;;;;9.00;7.00;;;;;;;;4611510;30;28928;-74
2023/08/17 19:37:51;;;;;;;;;10.25;8.50;;;;;;;;4611512;30;28478;-74
2023/08/17 19:40:17;;;;;;;;;8.00;8.00;;;;;;;;4613963;30;28632;-76
2023/08/17 19:42:43;;;;;;;;;9.25;7.25;;;;;;;;4612353;30;28504;-78
2023/08/17 19:45:08;;;;;;;;;11.25;8.50;;;;;;;;4610787;30;28616;-74
2023/08/17 19:47:33;;;;;;;;;11.50;9.00;;;;;;;;4612443;30;28423;-76
2023/08/17 19:49:58;;;;;;;;;0.00;0.00;;;;;;;;4612871;30;28481;-78